aviador You're here:

CYZV Decoded Metar

SEPT-ILES in QC, CANADA
Report Time2018-05-23 16:00:00
UTC Time2018-05-23 16:49:56
Flight Rules vfr VFR
Wind180° at 12 kt
W.Decomp.*RWY 13: 4.1 kt HW 11.3 kt RCW
RWY 27: 4.1 kt HW 11.3 kt LCW
W.Rank180° ranks 35
Current wind is above 180° avg. (6.1)
Visibility9999 m
Phenomena:N/A
Clouds:Few 050 Hf
Scattered 260 Hf
Expected CloudBase > 3,200 ft AGL from Temp-Dew spread
CeilingNone
Temp04°C (ISA -11)
Dew Point-4°C (56% RH)
AAT-2.8°C
QNH1015 hPa
Density Alt-1,112 ft
Elevation180 ft
Report Wrong Elevation
Raw Report
CYZV 231600Z 18012KT 30SM FEW050 SCT260 04/M04 A2998 RMK CU1CI3 CU
TR SLP158=

Extra information for CYZV:More info

Metar Taf Metar & Taf Last 4 Metars F.Rules Stats Wind Profile Meteogram Temp Stats Airport Information Weather charts Add Link Nearby VenuesMetar ALERT Operation Metar Decoded Social comments